createdAt,value
2023-02-28T00:01:43.419Z,100345.53
2023-02-28T00:04:12.097Z,100331.44
2023-02-28T00:06:40.647Z,100335.69
2023-02-28T00:09:08.958Z,100336.09
2023-02-28T00:11:39.523Z,100327.19
2023-02-28T00:14:08.135Z,100330.41
2023-02-28T00:16:36.705Z,100330.06
2023-02-28T00:19:05.472Z,100319.47
2023-02-28T00:21:34.827Z,100322.34
2023-02-28T00:24:04.593Z,100323.47
2023-02-28T00:26:33.836Z,100312.69
2023-02-28T00:29:02.714Z,100308.25
2023-02-28T00:31:31.062Z,100310.56
2023-02-28T00:33:59.713Z,100315.66
2023-02-28T00:36:27.981Z,100300.38
2023-02-28T00:38:56.638Z,100321.78
2023-02-28T00:41:24.889Z,100317.44
2023-02-28T00:43:53.839Z,100312.13
2023-02-28T00:46:22.550Z,100309.16
2023-02-28T00:48:55.738Z,100305.44
2023-02-28T00:51:24.529Z,100294.72
2023-02-28T00:53:53.002Z,100304.91
2023-02-28T00:56:22.167Z,100303.84
2023-02-28T00:58:51.287Z,100307.44
2023-02-28T01:01:21.115Z,100290.56
2023-02-28T01:03:49.342Z,100294.13
2023-02-28T01:06:18.194Z,100293.78
2023-02-28T01:08:46.617Z,100285.59
2023-02-28T01:11:16.376Z,100281.56
2023-02-28T01:13:45.436Z,100299.09
2023-02-28T01:16:14.638Z,100288.78
2023-02-28T01:18:42.934Z,100287.22
2023-02-28T01:21:16.294Z,100281.38
2023-02-28T01:23:44.784Z,100283.97
2023-02-28T01:26:16.136Z,100280.59
2023-02-28T01:28:44.570Z,100264.56
2023-02-28T01:31:12.983Z,100281.16
2023-02-28T01:33:41.288Z,100280.34
2023-02-28T01:36:12.700Z,100282.00
2023-02-28T01:38:41.273Z,100269.00
2023-02-28T01:41:09.605Z,100277.81
2023-02-28T01:43:44.337Z,100274.69
2023-02-28T01:46:14.915Z,100272.63
2023-02-28T01:49:23.642Z,100265.94
2023-02-28T01:51:56.816Z,100273.78
2023-02-28T01:54:29.327Z,100266.19
2023-02-28T01:57:00.902Z,100259.38
2023-02-28T01:59:33.834Z,100274.22
2023-02-28T02:02:03.208Z,100266.34
2023-02-28T02:04:38.107Z,100247.81
2023-02-28T02:07:06.220Z,100239.84
2023-02-28T02:09:34.630Z,100245.78
2023-02-28T02:12:07.866Z,100240.41
2023-02-28T02:14:44.101Z,100239.47
2023-02-28T02:17:21.310Z,100228.28
2023-02-28T02:20:18.452Z,100239.34
2023-02-28T02:23:24.508Z,100229.63
2023-02-28T02:26:17.081Z,100225.41
2023-02-28T02:29:02.451Z,100213.16
2023-02-28T02:31:40.742Z,100216.44
2023-02-28T02:34:51.616Z,100225.50
2023-02-28T02:37:30.676Z,100231.03
2023-02-28T02:40:19.342Z,100216.56
2023-02-28T02:43:00.172Z,100224.75
2023-02-28T02:45:47.824Z,100224.72
2023-02-28T02:48:18.652Z,100202.63
2023-02-28T02:50:58.635Z,100198.50
2023-02-28T02:53:35.686Z,100171.78
2023-02-28T02:56:04.256Z,100166.03
2023-02-28T02:58:43.964Z,100174.81
2023-02-28T03:01:14.381Z,100157.03
2023-02-28T03:03:43.429Z,100164.47
2023-02-28T03:06:12.264Z,100149.06
2023-02-28T03:08:41.458Z,100133.13
2023-02-28T03:11:16.719Z,100128.94
2023-02-28T03:14:12.904Z,100133.13
2023-02-28T03:17:01.578Z,100139.78
2023-02-28T03:19:52.288Z,100140.69
2023-02-28T03:23:00.243Z,100127.94
2023-02-28T03:25:53.072Z,100103.84
2023-02-28T03:28:47.441Z,100121.81
2023-02-28T03:31:35.097Z,100109.03
2023-02-28T03:34:39.500Z,100110.13
2023-02-28T03:37:16.988Z,100105.13
2023-02-28T03:39:56.110Z,100104.44
2023-02-28T03:42:29.296Z,100091.34
2023-02-28T03:48:15.236Z,100087.97
2023-02-28T03:50:47.017Z,100074.81
2023-02-28T03:53:22.080Z,100073.97
2023-02-28T03:56:02.284Z,100076.19
2023-02-28T03:59:01.534Z,100070.31
2023-02-28T04:01:36.718Z,100064.03
2023-02-28T04:04:04.662Z,100061.41
2023-02-28T04:06:34.304Z,100056.88
2023-02-28T04:09:02.586Z,100059.59
2023-02-28T04:11:38.705Z,100057.09
2023-02-28T04:14:07.362Z,100057.31
2023-02-28T04:16:36.215Z,100052.13
2023-02-28T04:19:08.240Z,100043.44
2023-02-28T04:21:37.686Z,100038.09
2023-02-28T04:24:06.721Z,100031.16
2023-02-28T04:26:35.727Z,100025.91
2023-02-28T04:29:05.084Z,100014.97
2023-02-28T04:31:33.506Z,100006.94
2023-02-28T04:34:02.729Z,100001.78
2023-02-28T04:36:31.578Z,99989.75
2023-02-28T04:39:00.038Z,99989.59
2023-02-28T04:41:32.203Z,99987.72
2023-02-28T04:44:01.573Z,99975.66
2023-02-28T04:46:30.146Z,99968.97
2023-02-28T04:48:58.983Z,99959.50
2023-02-28T04:51:27.718Z,99968.41
2023-02-28T04:53:56.753Z,99970.56
2023-02-28T04:56:24.840Z,99960.66
2023-02-28T04:58:56.272Z,99957.13
2023-02-28T05:01:26.994Z,99942.81
2023-02-28T05:03:57.455Z,99931.44
2023-02-28T05:06:27.405Z,99939.72
2023-02-28T05:08:58.819Z,99934.28
2023-02-28T05:11:36.577Z,99939.88
2023-02-28T05:14:06.210Z,99928.81
2023-02-28T05:16:34.952Z,99936.38
2023-02-28T05:19:03.870Z,99934.47
2023-02-28T05:21:34.333Z,99937.16
2023-02-28T05:24:04.532Z,99929.47
2023-02-28T05:26:33.228Z,99928.44
2023-02-28T05:29:01.817Z,99924.66
2023-02-28T05:31:30.363Z,99925.75
2023-02-28T05:33:59.255Z,99916.00
2023-02-28T05:36:28.044Z,99903.00
2023-02-28T05:38:59.170Z,99911.06
2023-02-28T05:41:30.621Z,99895.78
2023-02-28T05:44:04.166Z,99900.78
2023-02-28T05:46:36.411Z,99901.75
2023-02-28T05:49:05.224Z,99900.88
2023-02-28T05:51:35.687Z,99885.28
2023-02-28T05:54:04.329Z,99892.81
2023-02-28T05:56:33.300Z,99866.19
2023-02-28T05:59:02.476Z,99861.88
2023-02-28T06:01:50.118Z,99854.97
2023-02-28T06:04:31.176Z,99861.53
2023-02-28T06:07:00.664Z,99859.09
2023-02-28T06:09:28.738Z,99844.88
2023-02-28T06:11:58.878Z,99841.94
2023-02-28T06:14:26.848Z,99834.50
2023-02-28T06:16:54.726Z,99835.56
2023-02-28T06:19:24.219Z,99833.19
2023-02-28T06:21:53.712Z,99829.59
2023-02-28T06:24:25.080Z,99819.16
2023-02-28T06:26:53.137Z,99825.97
2023-02-28T06:29:20.925Z,99805.88
2023-02-28T06:31:49.507Z,99806.59
2023-02-28T06:34:17.816Z,99804.72
2023-02-28T06:36:45.877Z,99790.78
2023-02-28T06:39:13.941Z,99786.41
2023-02-28T06:41:54.282Z,99784.56
2023-02-28T06:44:25.756Z,99772.91
2023-02-28T06:46:53.851Z,99778.09
2023-02-28T06:49:22.056Z,99768.25
2023-02-28T06:51:49.993Z,99762.31
2023-02-28T06:54:18.013Z,99755.06
2023-02-28T06:56:46.193Z,99753.22
2023-02-28T06:59:14.107Z,99742.53
2023-02-28T07:01:42.375Z,99721.16
2023-02-28T07:04:10.574Z,99728.03
2023-02-28T07:06:38.389Z,99729.44
2023-02-28T07:09:06.665Z,99721.72
2023-02-28T07:11:34.708Z,99722.13
2023-02-28T07:14:02.562Z,99716.72
2023-02-28T07:16:30.416Z,99705.84
2023-02-28T07:18:58.829Z,99698.72
2023-02-28T07:21:26.617Z,99694.34
2023-02-28T07:23:54.656Z,99702.44
2023-02-28T07:26:22.836Z,99696.56
2023-02-28T07:28:51.046Z,99691.66
2023-02-28T07:31:19.559Z,99677.44
2023-02-28T07:33:47.950Z,99679.94
2023-02-28T07:36:17.299Z,99677.88
2023-02-28T07:38:48.352Z,99677.81
2023-02-28T07:41:17.811Z,99667.22
2023-02-28T07:43:46.116Z,99666.28
2023-02-28T07:46:19.288Z,99665.84
2023-02-28T07:48:46.945Z,99663.78
2023-02-28T07:51:14.711Z,99655.34
2023-02-28T07:53:42.875Z,99646.81
2023-02-28T07:56:12.404Z,99642.06
2023-02-28T07:58:40.361Z,99636.41
2023-02-28T08:01:09.909Z,99636.22
2023-02-28T08:03:38.032Z,99630.66
2023-02-28T08:06:06.949Z,99629.72
2023-02-28T08:08:34.955Z,99627.03
2023-02-28T08:11:03.871Z,99627.56
2023-02-28T08:13:31.720Z,99625.66
2023-02-28T08:15:59.946Z,99622.31
2023-02-28T08:18:27.714Z,99621.56
2023-02-28T08:20:55.643Z,99617.53
2023-02-28T08:23:23.442Z,99604.53
2023-02-28T08:25:57.765Z,99608.69
2023-02-28T08:28:27.461Z,99601.94
2023-02-28T08:30:56.017Z,99600.06
2023-02-28T08:33:24.572Z,99599.25
2023-02-28T08:35:56.703Z,99587.88
2023-02-28T08:38:25.065Z,99585.56
2023-02-28T08:40:59.878Z,99583.72
2023-02-28T08:43:27.999Z,99584.84
2023-02-28T08:45:58.250Z,99588.19
2023-02-28T08:48:27.859Z,99587.78
2023-02-28T08:51:07.088Z,99592.28
2023-02-28T08:53:39.149Z,99586.53
2023-02-28T08:56:15.889Z,99583.41
2023-02-28T08:58:44.106Z,99578.13
2023-02-28T09:01:14.075Z,99572.59
2023-02-28T09:03:45.042Z,99561.25
2023-02-28T09:06:13.178Z,99553.09
2023-02-28T09:08:41.420Z,99554.41
2023-02-28T09:11:10.004Z,99550.31
2023-02-28T09:13:37.963Z,99542.88
2023-02-28T09:16:09.228Z,99536.31
2023-02-28T09:18:40.510Z,99534.06
2023-02-28T09:21:10.256Z,99532.47
2023-02-28T09:23:41.160Z,99534.06
2023-02-28T09:26:09.500Z,99528.75
2023-02-28T09:28:37.524Z,99529.13
2023-02-28T09:31:06.198Z,99515.13
2023-02-28T09:33:35.616Z,99510.84
2023-02-28T09:36:05.521Z,99513.75
2023-02-28T09:38:33.735Z,99496.47
2023-02-28T09:41:11.697Z,99499.56
2023-02-28T09:43:42.266Z,99484.94
2023-02-28T09:46:20.827Z,99488.84
2023-02-28T09:48:49.923Z,99484.38
2023-02-28T09:51:25.365Z,99476.09
2023-02-28T09:54:00.063Z,99471.94
2023-02-28T09:56:38.103Z,99476.50
2023-02-28T09:59:15.223Z,99476.75
2023-02-28T10:01:56.255Z,99476.59
2023-02-28T10:04:56.571Z,99470.09
2023-02-28T10:07:36.956Z,99462.91
2023-02-28T10:10:10.165Z,99461.91
2023-02-28T10:12:38.303Z,99447.72
2023-02-28T10:15:06.387Z,99456.78
2023-02-28T10:20:33.055Z,99439.28
2023-02-28T10:23:08.956Z,99432.91
2023-02-28T10:25:38.036Z,99433.63
2023-02-28T10:28:13.684Z,99427.13
2023-02-28T10:30:47.218Z,99431.13
2023-02-28T10:33:27.438Z,99408.06
2023-02-28T10:35:55.259Z,99403.38
2023-02-28T10:38:29.340Z,99401.41
2023-02-28T10:41:16.330Z,99391.66
2023-02-28T10:43:46.343Z,99395.22
2023-02-28T10:46:27.313Z,99390.03
2023-02-28T10:49:13.181Z,99386.38
2023-02-28T10:51:42.235Z,99387.06
2023-02-28T10:54:36.843Z,99379.03
2023-02-28T10:57:17.691Z,99379.06
2023-02-28T10:59:45.920Z,99384.88
2023-02-28T11:02:31.119Z,99369.84
2023-02-28T11:04:59.329Z,99373.19
2023-02-28T11:07:37.310Z,99374.38
2023-02-28T11:10:19.071Z,99365.66
2023-02-28T11:12:52.828Z,99369.53
2023-02-28T11:15:32.767Z,99367.50
2023-02-28T11:18:02.864Z,99356.66
2023-02-28T11:20:32.939Z,99353.94
2023-02-28T11:23:02.377Z,99350.28
2023-02-28T11:25:35.338Z,99348.94
2023-02-28T11:28:06.987Z,99345.06
2023-02-28T11:30:42.302Z,99350.75
2023-02-28T11:33:30.605Z,99339.91
2023-02-28T11:36:10.506Z,99338.22
2023-02-28T11:38:38.788Z,99340.22
2023-02-28T11:41:33.617Z,99327.84
2023-02-28T11:44:30.407Z,99329.34
2023-02-28T11:47:02.537Z,99325.31
2023-02-28T11:49:33.451Z,99324.97
2023-02-28T11:52:23.519Z,99318.31
2023-02-28T11:55:16.364Z,99325.47
2023-02-28T11:58:03.141Z,99334.66
2023-02-28T12:01:08.160Z,99330.44
2023-02-28T12:03:52.540Z,99329.78
2023-02-28T12:06:23.503Z,99323.59
2023-02-28T12:08:54.772Z,99326.44
2023-02-28T12:11:44.522Z,99329.78
2023-02-28T12:14:27.219Z,99319.28
2023-02-28T12:17:04.633Z,99319.09
2023-02-28T12:19:51.331Z,99314.59
2023-02-28T12:22:52.485Z,99319.78
2023-02-28T12:25:20.099Z,99314.44
2023-02-28T12:27:48.882Z,99310.94
2023-02-28T12:30:30.458Z,99315.81
2023-02-28T12:33:09.431Z,99317.47
2023-02-28T12:35:57.274Z,99310.13
2023-02-28T12:38:45.769Z,99307.28
2023-02-28T12:41:21.835Z,99302.94
2023-02-28T12:43:54.771Z,99299.78
2023-02-28T12:46:35.852Z,99292.44
2023-02-28T12:49:11.248Z,99297.13
2023-02-28T12:51:39.034Z,99298.94
2023-02-28T12:54:14.065Z,99300.13
2023-02-28T12:57:07.641Z,99295.59
2023-02-28T12:59:43.348Z,99291.56
2023-02-28T13:02:37.331Z,99299.06
2023-02-28T13:05:30.351Z,99300.25
2023-02-28T13:08:22.982Z,99286.72
2023-02-28T13:10:55.747Z,99288.50
2023-02-28T13:13:31.161Z,99278.63
2023-02-28T13:16:08.165Z,99275.13
2023-02-28T13:18:46.616Z,99269.78
2023-02-28T13:21:31.496Z,99264.78
2023-02-28T13:24:05.112Z,99261.22
2023-02-28T13:26:33.255Z,99255.72
2023-02-28T13:29:20.344Z,99247.50
2023-02-28T13:32:10.149Z,99245.31
2023-02-28T13:34:42.758Z,99235.13
2023-02-28T13:37:23.003Z,99232.31
2023-02-28T13:39:57.989Z,99229.81
2023-02-28T13:42:32.231Z,99224.63
2023-02-28T13:45:03.179Z,99233.63
2023-02-28T13:47:32.302Z,99223.13
2023-02-28T13:50:26.240Z,99224.94
2023-02-28T13:53:15.664Z,99215.44
2023-02-28T13:56:01.718Z,99211.41
2023-02-28T13:59:03.675Z,99206.41
2023-02-28T14:01:53.629Z,99203.41
2023-02-28T14:04:40.179Z,99196.38
2023-02-28T14:07:08.617Z,99185.19
2023-02-28T14:09:41.159Z,99176.38
2023-02-28T14:12:46.202Z,99173.53
2023-02-28T14:15:39.540Z,99181.69
2023-02-28T14:18:16.223Z,99171.69
2023-02-28T14:20:44.314Z,99171.19
2023-02-28T14:23:22.581Z,99161.63
2023-02-28T14:26:03.924Z,99158.31
2023-02-28T14:28:51.223Z,99158.31
2023-02-28T14:31:30.067Z,99156.78
2023-02-28T14:34:13.584Z,99149.16
2023-02-28T14:36:42.177Z,99146.47
2023-02-28T14:39:17.991Z,99143.97
2023-02-28T14:41:47.176Z,99136.53
2023-02-28T14:44:27.309Z,99123.03
2023-02-28T14:46:59.511Z,99125.53
2023-02-28T14:49:44.216Z,99111.03
2023-02-28T14:52:19.060Z,99096.53
2023-02-28T14:54:47.528Z,99108.22
2023-02-28T14:57:34.579Z,99108.88
2023-02-28T15:00:18.007Z,99097.56
2023-02-28T15:02:45.998Z,99090.56
2023-02-28T15:05:13.874Z,99084.56
2023-02-28T15:07:41.807Z,99083.56
2023-02-28T15:10:26.724Z,99080.06
2023-02-28T15:13:03.777Z,99065.56
2023-02-28T15:15:51.588Z,99064.91
2023-02-28T15:18:27.138Z,99063.25
2023-02-28T15:20:55.379Z,99061.56
2023-02-28T15:23:23.301Z,99058.75
2023-02-28T15:25:51.735Z,99056.91
2023-02-28T15:28:21.058Z,99058.41
2023-02-28T15:31:02.995Z,99051.25
2023-02-28T15:33:32.887Z,99051.06
2023-02-28T15:36:29.280Z,99051.91
2023-02-28T15:38:59.600Z,99044.41
2023-02-28T15:41:41.526Z,99044.56
2023-02-28T15:44:33.253Z,99042.25
2023-02-28T15:47:13.741Z,99038.22
2023-02-28T15:50:00.634Z,99036.88
2023-02-28T15:52:35.424Z,99032.72
2023-02-28T15:55:20.075Z,99028.53
2023-02-28T15:57:49.739Z,99026.22
2023-02-28T16:00:20.676Z,99026.50
2023-02-28T16:02:48.900Z,99026.69
2023-02-28T16:05:29.488Z,99016.69
2023-02-28T16:07:58.728Z,99014.84
2023-02-28T16:10:28.226Z,98998.19
2023-02-28T16:12:57.410Z,98999.69
2023-02-28T16:15:29.969Z,99002.03
2023-02-28T16:17:58.274Z,98996.88
2023-02-28T16:20:30.817Z,98989.53
2023-02-28T16:23:02.656Z,98987.03
2023-02-28T16:25:36.678Z,98987.50
2023-02-28T16:28:04.676Z,98986.66
2023-02-28T16:30:35.412Z,98994.81
2023-02-28T16:33:03.726Z,98981.16
2023-02-28T16:35:31.728Z,98985.50
2023-02-28T16:37:59.880Z,98981.31
2023-02-28T16:40:29.844Z,98973.50
2023-02-28T16:43:00.488Z,98975.00
2023-02-28T16:45:29.512Z,98961.19
2023-02-28T16:47:57.442Z,98972.50
2023-02-28T16:50:26.993Z,98958.97
2023-02-28T16:52:55.764Z,98955.69
2023-02-28T16:55:24.542Z,98955.69
2023-02-28T16:57:54.778Z,98955.19
2023-02-28T17:00:23.201Z,98951.81
2023-02-28T17:02:51.376Z,98942.16
2023-02-28T17:05:20.145Z,98940.50
2023-02-28T17:07:48.233Z,98933.69
2023-02-28T17:10:17.779Z,98929.03
2023-02-28T17:12:46.120Z,98915.03
2023-02-28T17:15:16.190Z,98928.00
2023-02-28T17:17:44.256Z,98913.88
2023-02-28T17:20:14.552Z,98918.38
2023-02-28T17:22:42.720Z,98915.50
2023-02-28T17:25:11.611Z,98896.84
2023-02-28T17:27:39.810Z,98905.84
2023-02-28T17:30:20.617Z,98896.53
2023-02-28T17:32:48.807Z,98887.03
2023-02-28T17:35:17.353Z,98891.38
2023-02-28T17:37:45.098Z,98891.69
2023-02-28T17:40:21.342Z,98887.38
2023-02-28T17:42:49.933Z,98879.00
2023-02-28T17:45:18.148Z,98882.03
2023-02-28T17:47:48.555Z,98850.22
2023-02-28T17:50:18.978Z,98857.38
2023-02-28T17:52:47.753Z,98851.22
2023-02-28T17:55:15.919Z,98845.25
2023-02-28T17:57:44.391Z,98845.41
2023-02-28T18:00:17.313Z,98840.91
2023-02-28T18:02:46.021Z,98839.75
2023-02-28T18:05:13.768Z,98835.25
2023-02-28T18:07:42.103Z,98834.59
2023-02-28T18:10:20.677Z,98834.44
2023-02-28T18:12:49.686Z,98830.94
2023-02-28T18:15:18.876Z,98832.94
2023-02-28T18:17:46.792Z,98821.44
2023-02-28T18:20:14.742Z,98817.78
2023-02-28T18:22:42.983Z,98807.97
2023-02-28T18:25:15.072Z,98810.66
2023-02-28T18:27:54.563Z,98804.81
2023-02-28T18:30:23.209Z,98815.28
2023-02-28T18:32:51.047Z,98807.47
2023-02-28T18:35:35.287Z,98815.13
2023-02-28T18:38:16.803Z,98814.47
2023-02-28T18:40:45.907Z,98814.63
2023-02-28T18:43:14.064Z,98807.78
2023-02-28T18:45:42.404Z,98804.28
2023-02-28T18:48:10.864Z,98804.63
2023-02-28T18:50:39.252Z,98805.63
2023-02-28T18:53:07.422Z,98799.63
2023-02-28T18:55:35.649Z,98787.66
2023-02-28T18:58:03.717Z,98795.97
2023-02-28T19:00:32.257Z,98789.16
2023-02-28T19:03:00.457Z,98788.16
2023-02-28T19:05:33.569Z,98785.50
2023-02-28T19:08:02.863Z,98791.97
2023-02-28T19:10:30.518Z,98773.53
2023-02-28T19:12:58.343Z,98780.34
2023-02-28T19:15:26.586Z,98778.00
2023-02-28T19:17:54.404Z,98778.00
2023-02-28T19:20:22.207Z,98764.72
2023-02-28T19:22:50.099Z,98772.53
2023-02-28T19:25:19.264Z,98771.19
2023-02-28T19:27:47.346Z,98762.22
2023-02-28T19:30:15.717Z,98769.03
2023-02-28T19:32:43.607Z,98755.41
2023-02-28T19:35:11.375Z,98771.22
2023-02-28T19:37:40.349Z,98755.09
2023-02-28T19:40:09.598Z,98745.28
2023-02-28T19:42:37.865Z,98761.25
2023-02-28T19:45:07.350Z,98743.28
2023-02-28T19:47:35.558Z,98735.97
2023-02-28T19:50:03.422Z,98745.28
2023-02-28T19:52:31.555Z,98730.97
2023-02-28T19:54:59.305Z,98735.13
2023-02-28T19:57:27.805Z,98730.81
2023-02-28T19:59:55.722Z,98730.50
2023-02-28T20:02:23.762Z,98726.66
2023-02-28T20:04:52.304Z,98724.00
2023-02-28T20:07:20.691Z,98716.84
2023-02-28T20:09:49.010Z,98716.19
2023-02-28T20:12:25.518Z,98719.16
2023-02-28T20:14:56.247Z,98713.34
2023-02-28T20:17:24.654Z,98718.00
2023-02-28T20:19:52.471Z,98706.84
2023-02-28T20:22:20.138Z,98706.53
2023-02-28T20:24:48.655Z,98708.03
2023-02-28T20:27:17.780Z,98702.72
2023-02-28T20:29:45.803Z,98694.19
2023-02-28T20:32:14.317Z,98701.03
2023-02-28T20:34:42.801Z,98691.03
2023-02-28T20:37:11.146Z,98697.38
2023-02-28T20:39:39.193Z,98687.72
2023-02-28T20:42:07.694Z,98678.56
2023-02-28T20:44:35.596Z,98679.75
2023-02-28T20:47:04.546Z,98678.56
2023-02-28T20:49:32.163Z,98675.91
2023-02-28T20:52:00.429Z,98670.06
2023-02-28T20:54:30.889Z,98674.41
2023-02-28T20:56:59.138Z,98677.41
2023-02-28T20:59:27.291Z,98668.22
2023-02-28T21:01:56.681Z,98675.22
2023-02-28T21:04:24.815Z,98681.22
2023-02-28T21:06:52.921Z,98674.25
2023-02-28T21:09:20.782Z,98676.06
2023-02-28T21:11:49.031Z,98669.75
2023-02-28T21:14:18.319Z,98667.09
2023-02-28T21:16:46.471Z,98666.41
2023-02-28T21:19:14.662Z,98668.22
2023-02-28T21:21:47.152Z,98668.56
2023-02-28T21:24:17.363Z,98663.91
2023-02-28T21:26:46.271Z,98664.91
2023-02-28T21:29:14.817Z,98654.09
2023-02-28T21:31:43.096Z,98663.59
2023-02-28T21:34:12.008Z,98668.91
2023-02-28T21:36:42.397Z,98668.91
2023-02-28T21:39:14.321Z,98646.81
2023-02-28T21:41:42.547Z,98641.50
2023-02-28T21:44:19.046Z,98648.81
2023-02-28T21:46:51.125Z,98643.66
2023-02-28T21:49:19.268Z,98653.28
2023-02-28T21:51:47.521Z,98645.13
2023-02-28T21:54:15.368Z,98662.94
2023-02-28T21:56:43.932Z,98651.63
2023-02-28T21:59:11.697Z,98652.78
2023-02-28T22:01:41.639Z,98650.97
2023-02-28T22:04:11.129Z,98652.13
2023-02-28T22:06:40.681Z,98654.09
2023-02-28T22:09:09.642Z,98650.31
2023-02-28T22:11:37.727Z,98643.97
2023-02-28T22:14:07.205Z,98658.59
2023-02-28T22:16:50.163Z,98648.47
2023-02-28T22:19:20.917Z,98645.47
2023-02-28T22:21:48.966Z,98645.66
2023-02-28T22:24:20.630Z,98660.94
2023-02-28T22:26:50.296Z,98656.44
2023-02-28T22:29:18.527Z,98641.50
2023-02-28T22:31:46.474Z,98659.41
2023-02-28T22:34:14.206Z,98678.72
2023-02-28T22:36:42.793Z,98665.72
2023-02-28T22:39:10.736Z,98647.44
2023-02-28T22:41:38.993Z,98667.38
2023-02-28T22:44:07.688Z,98664.06
2023-02-28T22:46:36.359Z,98652.44
2023-02-28T22:49:04.808Z,98669.09
2023-02-28T22:51:32.538Z,98664.44
2023-02-28T22:54:00.693Z,98660.94
2023-02-28T22:56:30.021Z,98664.44
2023-02-28T22:58:59.647Z,98649.78
2023-02-28T23:01:28.893Z,98671.56
2023-02-28T23:03:57.246Z,98657.78
2023-02-28T23:06:38.569Z,98646.28
2023-02-28T23:09:07.441Z,98645.31
2023-02-28T23:11:40.511Z,98652.78
2023-02-28T23:14:08.769Z,98637.84
2023-02-28T23:16:36.563Z,98664.94
2023-02-28T23:19:07.482Z,98657.47
2023-02-28T23:21:36.414Z,98656.47
2023-02-28T23:24:05.425Z,98648.66
2023-02-28T23:26:33.958Z,98655.44
2023-02-28T23:29:02.018Z,98650.63
2023-02-28T23:31:30.018Z,98655.44
2023-02-28T23:33:57.837Z,98655.09
2023-02-28T23:36:25.689Z,98649.13
2023-02-28T23:38:54.918Z,98646.47
2023-02-28T23:41:23.473Z,98660.28
2023-02-28T23:43:52.529Z,98654.78
2023-02-28T23:46:21.136Z,98648.47
2023-02-28T23:48:49.262Z,98650.31
2023-02-28T23:51:19.702Z,98655.97
2023-02-28T23:53:50.757Z,98658.31
2023-02-28T23:56:23.849Z,98657.78
2023-02-28T23:58:52.094Z,98663.25
